sensor_id;sensor_type;location;lat;lon;timestamp;P1;durP1;ratioP1;P2;durP2;ratioP2
60494;SDS011;46342;49.046;11.920;2023-05-20T00:00:26;1.77;;;1.67;;
60494;SDS011;46342;49.046;11.920;2023-05-20T00:02:52;3.30;;;1.80;;
60494;SDS011;46342;49.046;11.920;2023-05-20T00:05:17;2.35;;;1.83;;
60494;SDS011;46342;49.046;11.920;2023-05-20T00:07:43;2.72;;;1.88;;
60494;SDS011;46342;49.046;11.920;2023-05-20T00:10:09;3.08;;;2.03;;
60494;SDS011;46342;49.046;11.920;2023-05-20T00:12:36;2.30;;;2.10;;
60494;SDS011;46342;49.046;11.920;2023-05-20T00:15:02;3.05;;;1.85;;
60494;SDS011;46342;49.046;11.920;2023-05-20T00:17:28;2.78;;;1.92;;
60494;SDS011;46342;49.046;11.920;2023-05-20T00:19:54;2.47;;;1.83;;
60494;SDS011;46342;49.046;11.920;2023-05-20T00:22:20;2.17;;;1.90;;
60494;SDS011;46342;49.046;11.920;2023-05-20T00:24:45;4.40;;;1.83;;
60494;SDS011;46342;49.046;11.920;2023-05-20T00:27:11;4.72;;;2.13;;
60494;SDS011;46342;49.046;11.920;2023-05-20T00:29:36;1.80;;;1.70;;
60494;SDS011;46342;49.046;11.920;2023-05-20T00:32:02;2.10;;;1.90;;
60494;SDS011;46342;49.046;11.920;2023-05-20T00:34:28;4.25;;;2.00;;
60494;SDS011;46342;49.046;11.920;2023-05-20T00:36:53;1.50;;;1.38;;
60494;SDS011;46342;49.046;11.920;2023-05-20T00:39:19;2.50;;;2.00;;
60494;SDS011;46342;49.046;11.920;2023-05-20T00:41:44;1.80;;;1.70;;
60494;SDS011;46342;49.046;11.920;2023-05-20T00:44:10;2.47;;;2.10;;
60494;SDS011;46342;49.046;11.920;2023-05-20T00:46:35;2.17;;;1.98;;
60494;SDS011;46342;49.046;11.920;2023-05-20T00:49:01;2.20;;;2.00;;
60494;SDS011;46342;49.046;11.920;2023-05-20T00:51:27;2.72;;;2.30;;
60494;SDS011;46342;49.046;11.920;2023-05-20T00:53:53;2.13;;;1.90;;
60494;SDS011;46342;49.046;11.920;2023-05-20T00:56:19;2.58;;;2.10;;
60494;SDS011;46342;49.046;11.920;2023-05-20T00:58:46;2.55;;;1.98;;
60494;SDS011;46342;49.046;11.920;2023-05-20T01:01:11;2.75;;;1.88;;
60494;SDS011;46342;49.046;11.920;2023-05-20T01:03:37;2.30;;;2.10;;
60494;SDS011;46342;49.046;11.920;2023-05-20T01:06:04;4.18;;;2.15;;
60494;SDS011;46342;49.046;11.920;2023-05-20T01:08:30;3.17;;;2.55;;
60494;SDS011;46342;49.046;11.920;2023-05-20T01:13:35;2.63;;;1.98;;
60494;SDS011;46342;49.046;11.920;2023-05-20T01:16:07;2.95;;;2.30;;
60494;SDS011;46342;49.046;11.920;2023-05-20T01:18:34;2.67;;;2.30;;
60494;SDS011;46342;49.046;11.920;2023-05-20T01:21:03;2.53;;;2.33;;
60494;SDS011;46342;49.046;11.920;2023-05-20T01:23:38;3.00;;;2.20;;
60494;SDS011;46342;49.046;11.920;2023-05-20T01:26:04;3.25;;;1.83;;
60494;SDS011;46342;49.046;11.920;2023-05-20T01:28:34;2.20;;;2.00;;
60494;SDS011;46342;49.046;11.920;2023-05-20T01:31:01;2.42;;;2.22;;
60494;SDS011;46342;49.046;11.920;2023-05-20T01:33:30;3.05;;;2.30;;
60494;SDS011;46342;49.046;11.920;2023-05-20T01:35:57;2.72;;;2.03;;
60494;SDS011;46342;49.046;11.920;2023-05-20T01:38:23;2.65;;;2.08;;
60494;SDS011;46342;49.046;11.920;2023-05-20T01:40:50;2.63;;;2.10;;
60494;SDS011;46342;49.046;11.920;2023-05-20T01:43:16;2.65;;;2.10;;
60494;SDS011;46342;49.046;11.920;2023-05-20T01:45:42;3.45;;;2.20;;
60494;SDS011;46342;49.046;11.920;2023-05-20T01:48:12;2.90;;;2.33;;
60494;SDS011;46342;49.046;11.920;2023-05-20T01:50:38;2.50;;;2.30;;
60494;SDS011;46342;49.046;11.920;2023-05-20T01:53:04;2.33;;;2.13;;
60494;SDS011;46342;49.046;11.920;2023-05-20T01:57:57;2.88;;;2.28;;
60494;SDS011;46342;49.046;11.920;2023-05-20T02:00:23;2.50;;;2.22;;
60494;SDS011;46342;49.046;11.920;2023-05-20T02:02:49;2.35;;;1.75;;
60494;SDS011;46342;49.046;11.920;2023-05-20T02:05:15;3.15;;;2.25;;
60494;SDS011;46342;49.046;11.920;2023-05-20T02:07:40;2.72;;;2.30;;
60494;SDS011;46342;49.046;11.920;2023-05-20T02:10:06;3.25;;;2.20;;
60494;SDS011;46342;49.046;11.920;2023-05-20T02:12:32;2.63;;;2.40;;
60494;SDS011;46342;49.046;11.920;2023-05-20T02:14:57;3.08;;;2.20;;
60494;SDS011;46342;49.046;11.920;2023-05-20T02:17:23;2.70;;;2.20;;
60494;SDS011;46342;49.046;11.920;2023-05-20T02:19:49;2.15;;;1.95;;
60494;SDS011;46342;49.046;11.920;2023-05-20T02:22:14;2.72;;;2.50;;
60494;SDS011;46342;49.046;11.920;2023-05-20T02:24:40;4.80;;;2.55;;
60494;SDS011;46342;49.046;11.920;2023-05-20T02:27:07;2.58;;;2.15;;
60494;SDS011;46342;49.046;11.920;2023-05-20T02:29:32;2.78;;;2.30;;
60494;SDS011;46342;49.046;11.920;2023-05-20T02:31:58;2.30;;;2.10;;
60494;SDS011;46342;49.046;11.920;2023-05-20T02:34:24;3.28;;;2.40;;
60494;SDS011;46342;49.046;11.920;2023-05-20T02:36:50;3.08;;;2.22;;
60494;SDS011;46342;49.046;11.920;2023-05-20T02:39:16;3.85;;;2.75;;
60494;SDS011;46342;49.046;11.920;2023-05-20T02:41:42;3.92;;;2.38;;
60494;SDS011;46342;49.046;11.920;2023-05-20T02:44:07;3.15;;;2.55;;
60494;SDS011;46342;49.046;11.920;2023-05-20T02:46:33;5.57;;;2.47;;
60494;SDS011;46342;49.046;11.920;2023-05-20T02:48:58;3.47;;;2.25;;
60494;SDS011;46342;49.046;11.920;2023-05-20T02:51:24;2.20;;;2.00;;
60494;SDS011;46342;49.046;11.920;2023-05-20T02:53:50;3.25;;;2.00;;
60494;SDS011;46342;49.046;11.920;2023-05-20T02:56:15;2.70;;;2.25;;
60494;SDS011;46342;49.046;11.920;2023-05-20T02:58:45;5.25;;;3.00;;
60494;SDS011;46342;49.046;11.920;2023-05-20T03:01:11;2.72;;;2.30;;
60494;SDS011;46342;49.046;11.920;2023-05-20T03:03:37;3.55;;;2.28;;
60494;SDS011;46342;49.046;11.920;2023-05-20T03:06:04;2.78;;;2.47;;
60494;SDS011;46342;49.046;11.920;2023-05-20T03:08:30;2.60;;;2.30;;
60494;SDS011;46342;49.046;11.920;2023-05-20T03:10:58;2.30;;;1.92;;
60494;SDS011;46342;49.046;11.920;2023-05-20T03:13:23;2.80;;;2.38;;
60494;SDS011;46342;49.046;11.920;2023-05-20T03:15:49;3.53;;;3.10;;
60494;SDS011;46342;49.046;11.920;2023-05-20T03:18:15;3.13;;;2.78;;
60494;SDS011;46342;49.046;11.920;2023-05-20T03:20:41;3.95;;;2.35;;
60494;SDS011;46342;49.046;11.920;2023-05-20T03:23:07;3.03;;;2.58;;
60494;SDS011;46342;49.046;11.920;2023-05-20T03:25:33;2.97;;;2.63;;
60494;SDS011;46342;49.046;11.920;2023-05-20T03:27:59;3.17;;;2.58;;
60494;SDS011;46342;49.046;11.920;2023-05-20T03:30:24;2.80;;;2.13;;
60494;SDS011;46342;49.046;11.920;2023-05-20T03:32:52;3.78;;;2.53;;
60494;SDS011;46342;49.046;11.920;2023-05-20T03:35:18;5.20;;;3.00;;
60494;SDS011;46342;49.046;11.920;2023-05-20T03:37:43;2.53;;;2.28;;
60494;SDS011;46342;49.046;11.920;2023-05-20T03:40:09;2.95;;;2.60;;
60494;SDS011;46342;49.046;11.920;2023-05-20T03:42:38;2.65;;;2.33;;
60494;SDS011;46342;49.046;11.920;2023-05-20T03:45:04;3.90;;;2.65;;
60494;SDS011;46342;49.046;11.920;2023-05-20T03:47:30;4.40;;;2.10;;
60494;SDS011;46342;49.046;11.920;2023-05-20T03:49:56;4.18;;;2.70;;
60494;SDS011;46342;49.046;11.920;2023-05-20T03:52:22;3.08;;;2.58;;
60494;SDS011;46342;49.046;11.920;2023-05-20T03:54:47;2.90;;;2.53;;
60494;SDS011;46342;49.046;11.920;2023-05-20T03:57:13;3.50;;;2.63;;
60494;SDS011;46342;49.046;11.920;2023-05-20T03:59:38;3.67;;;2.65;;
60494;SDS011;46342;49.046;11.920;2023-05-20T04:02:04;3.67;;;2.60;;
60494;SDS011;46342;49.046;11.920;2023-05-20T04:04:30;4.00;;;2.78;;
60494;SDS011;46342;49.046;11.920;2023-05-20T04:06:56;3.60;;;2.80;;
60494;SDS011;46342;49.046;11.920;2023-05-20T04:09:22;3.22;;;2.58;;
60494;SDS011;46342;49.046;11.920;2023-05-20T04:11:48;2.65;;;2.33;;
60494;SDS011;46342;49.046;11.920;2023-05-20T04:14:13;4.15;;;2.83;;
60494;SDS011;46342;49.046;11.920;2023-05-20T04:16:39;4.28;;;3.20;;
60494;SDS011;46342;49.046;11.920;2023-05-20T04:19:05;3.28;;;2.72;;
60494;SDS011;46342;49.046;11.920;2023-05-20T04:21:31;6.50;;;3.03;;
60494;SDS011;46342;49.046;11.920;2023-05-20T04:23:56;3.75;;;2.72;;
60494;SDS011;46342;49.046;11.920;2023-05-20T04:26:22;3.13;;;2.70;;
60494;SDS011;46342;49.046;11.920;2023-05-20T04:28:47;4.18;;;2.60;;
60494;SDS011;46342;49.046;11.920;2023-05-20T04:31:13;2.97;;;2.67;;
60494;SDS011;46342;49.046;11.920;2023-05-20T04:33:39;3.20;;;2.70;;
60494;SDS011;46342;49.046;11.920;2023-05-20T04:36:08;3.38;;;2.72;;
60494;SDS011;46342;49.046;11.920;2023-05-20T04:38:36;3.58;;;2.58;;
60494;SDS011;46342;49.046;11.920;2023-05-20T04:41:02;4.47;;;3.00;;
60494;SDS011;46342;49.046;11.920;2023-05-20T04:43:28;5.00;;;4.03;;
60494;SDS011;46342;49.046;11.920;2023-05-20T04:45:54;4.65;;;3.10;;
60494;SDS011;46342;49.046;11.920;2023-05-20T04:48:20;3.70;;;2.97;;
60494;SDS011;46342;49.046;11.920;2023-05-20T04:50:46;2.67;;;2.45;;
60494;SDS011;46342;49.046;11.920;2023-05-20T04:53:13;3.33;;;2.97;;
60494;SDS011;46342;49.046;11.920;2023-05-20T04:55:42;3.00;;;2.75;;
60494;SDS011;46342;49.046;11.920;2023-05-20T04:58:08;3.33;;;2.90;;
60494;SDS011;46342;49.046;11.920;2023-05-20T05:00:39;3.55;;;2.47;;
60494;SDS011;46342;49.046;11.920;2023-05-20T05:03:06;3.80;;;3.40;;
60494;SDS011;46342;49.046;11.920;2023-05-20T05:05:33;3.10;;;2.67;;
60494;SDS011;46342;49.046;11.920;2023-05-20T05:08:02;3.15;;;2.80;;
60494;SDS011;46342;49.046;11.920;2023-05-20T05:10:29;4.50;;;2.63;;
60494;SDS011;46342;49.046;11.920;2023-05-20T05:12:55;2.45;;;2.25;;
60494;SDS011;46342;49.046;11.920;2023-05-20T05:15:21;4.47;;;2.83;;
60494;SDS011;46342;49.046;11.920;2023-05-20T05:17:46;3.05;;;2.75;;
60494;SDS011;46342;49.046;11.920;2023-05-20T05:20:12;3.67;;;3.20;;
60494;SDS011;46342;49.046;11.920;2023-05-20T05:22:37;4.13;;;3.15;;
60494;SDS011;46342;49.046;11.920;2023-05-20T05:25:05;3.30;;;2.85;;
60494;SDS011;46342;49.046;11.920;2023-05-20T05:27:31;3.80;;;3.10;;
60494;SDS011;46342;49.046;11.920;2023-05-20T05:29:57;4.18;;;3.03;;
60494;SDS011;46342;49.046;11.920;2023-05-20T05:32:22;4.00;;;3.20;;
60494;SDS011;46342;49.046;11.920;2023-05-20T05:34:48;3.85;;;2.85;;
60494;SDS011;46342;49.046;11.920;2023-05-20T05:37:13;4.90;;;3.47;;
60494;SDS011;46342;49.046;11.920;2023-05-20T05:39:39;3.38;;;2.78;;
60494;SDS011;46342;49.046;11.920;2023-05-20T05:42:04;4.20;;;3.08;;
60494;SDS011;46342;49.046;11.920;2023-05-20T05:44:30;3.85;;;2.83;;
60494;SDS011;46342;49.046;11.920;2023-05-20T05:46:56;4.43;;;2.97;;
60494;SDS011;46342;49.046;11.920;2023-05-20T05:49:21;3.90;;;3.08;;
60494;SDS011;46342;49.046;11.920;2023-05-20T05:51:47;3.10;;;2.80;;
60494;SDS011;46342;49.046;11.920;2023-05-20T05:54:13;3.95;;;3.20;;
60494;SDS011;46342;49.046;11.920;2023-05-20T05:56:39;3.78;;;3.25;;
60494;SDS011;46342;49.046;11.920;2023-05-20T05:59:05;4.15;;;2.83;;
60494;SDS011;46342;49.046;11.920;2023-05-20T06:01:30;3.47;;;2.75;;
60494;SDS011;46342;49.046;11.920;2023-05-20T06:03:56;5.20;;;2.90;;
60494;SDS011;46342;49.046;11.920;2023-05-20T06:06:21;4.45;;;3.58;;
60494;SDS011;46342;49.046;11.920;2023-05-20T06:08:47;4.03;;;3.42;;
60494;SDS011;46342;49.046;11.920;2023-05-20T06:11:12;3.80;;;3.05;;
60494;SDS011;46342;49.046;11.920;2023-05-20T06:13:39;6.07;;;4.32;;
60494;SDS011;46342;49.046;11.920;2023-05-20T06:16:05;5.68;;;3.20;;
60494;SDS011;46342;49.046;11.920;2023-05-20T06:18:31;5.38;;;3.30;;
60494;SDS011;46342;49.046;11.920;2023-05-20T06:20:56;3.22;;;2.92;;
60494;SDS011;46342;49.046;11.920;2023-05-20T06:23:23;3.35;;;3.03;;
60494;SDS011;46342;49.046;11.920;2023-05-20T06:25:49;4.10;;;3.08;;
60494;SDS011;46342;49.046;11.920;2023-05-20T06:28:14;4.22;;;2.90;;
60494;SDS011;46342;49.046;11.920;2023-05-20T06:30:40;4.70;;;3.38;;
60494;SDS011;46342;49.046;11.920;2023-05-20T06:33:06;4.22;;;3.40;;
60494;SDS011;46342;49.046;11.920;2023-05-20T06:35:31;3.53;;;2.97;;
60494;SDS011;46342;49.046;11.920;2023-05-20T06:38:00;3.97;;;3.30;;
60494;SDS011;46342;49.046;11.920;2023-05-20T06:40:26;3.10;;;2.67;;
60494;SDS011;46342;49.046;11.920;2023-05-20T06:42:52;3.20;;;2.78;;
60494;SDS011;46342;49.046;11.920;2023-05-20T06:45:17;3.38;;;3.08;;
60494;SDS011;46342;49.046;11.920;2023-05-20T06:47:43;4.70;;;3.60;;
60494;SDS011;46342;49.046;11.920;2023-05-20T06:50:09;4.05;;;3.38;;
60494;SDS011;46342;49.046;11.920;2023-05-20T06:52:35;3.95;;;3.53;;
60494;SDS011;46342;49.046;11.920;2023-05-20T06:55:00;5.70;;;3.78;;
60494;SDS011;46342;49.046;11.920;2023-05-20T06:57:27;5.07;;;3.22;;
60494;SDS011;46342;49.046;11.920;2023-05-20T06:59:52;4.18;;;3.25;;
60494;SDS011;46342;49.046;11.920;2023-05-20T07:02:18;3.90;;;3.42;;
60494;SDS011;46342;49.046;11.920;2023-05-20T07:04:45;3.20;;;2.75;;
60494;SDS011;46342;49.046;11.920;2023-05-20T07:07:10;5.18;;;3.20;;
60494;SDS011;46342;49.046;11.920;2023-05-20T07:09:36;3.40;;;3.10;;
60494;SDS011;46342;49.046;11.920;2023-05-20T07:12:01;3.83;;;3.15;;
60494;SDS011;46342;49.046;11.920;2023-05-20T07:14:27;6.53;;;3.72;;
60494;SDS011;46342;49.046;11.920;2023-05-20T07:16:53;5.32;;;3.55;;
60494;SDS011;46342;49.046;11.920;2023-05-20T07:19:18;4.53;;;3.75;;
60494;SDS011;46342;49.046;11.920;2023-05-20T07:21:44;3.60;;;3.30;;
60494;SDS011;46342;49.046;11.920;2023-05-20T07:24:09;4.65;;;3.33;;
60494;SDS011;46342;49.046;11.920;2023-05-20T07:26:35;4.65;;;3.30;;
60494;SDS011;46342;49.046;11.920;2023-05-20T07:29:03;4.40;;;3.60;;
60494;SDS011;46342;49.046;11.920;2023-05-20T07:31:29;4.00;;;3.58;;
60494;SDS011;46342;49.046;11.920;2023-05-20T07:33:55;3.53;;;3.17;;
60494;SDS011;46342;49.046;11.920;2023-05-20T07:36:21;3.78;;;3.05;;
60494;SDS011;46342;49.046;11.920;2023-05-20T07:38:46;3.38;;;3.08;;
60494;SDS011;46342;49.046;11.920;2023-05-20T07:41:12;4.07;;;3.20;;
60494;SDS011;46342;49.046;11.920;2023-05-20T07:43:37;4.28;;;3.42;;
60494;SDS011;46342;49.046;11.920;2023-05-20T07:46:04;4.57;;;3.40;;
60494;SDS011;46342;49.046;11.920;2023-05-20T07:48:29;4.50;;;3.42;;
60494;SDS011;46342;49.046;11.920;2023-05-20T07:50:55;4.28;;;3.30;;
60494;SDS011;46342;49.046;11.920;2023-05-20T07:53:23;4.60;;;3.60;;
60494;SDS011;46342;49.046;11.920;2023-05-20T07:55:49;4.00;;;3.00;;
60494;SDS011;46342;49.046;11.920;2023-05-20T07:58:14;3.78;;;3.35;;
60494;SDS011;46342;49.046;11.920;2023-05-20T08:00:40;4.45;;;3.60;;
60494;SDS011;46342;49.046;11.920;2023-05-20T08:03:05;4.32;;;3.75;;
60494;SDS011;46342;49.046;11.920;2023-05-20T08:05:32;3.75;;;3.40;;
60494;SDS011;46342;49.046;11.920;2023-05-20T08:08:00;3.55;;;3.25;;
60494;SDS011;46342;49.046;11.920;2023-05-20T08:10:25;4.30;;;3.33;;
60494;SDS011;46342;49.046;11.920;2023-05-20T08:12:51;4.28;;;3.55;;
60494;SDS011;46342;49.046;11.920;2023-05-20T08:15:17;3.78;;;3.35;;
60494;SDS011;46342;49.046;11.920;2023-05-20T08:17:43;3.60;;;3.30;;
60494;SDS011;46342;49.046;11.920;2023-05-20T08:20:08;7.78;;;3.60;;
60494;SDS011;46342;49.046;11.920;2023-05-20T08:22:36;4.55;;;3.50;;
60494;SDS011;46342;49.046;11.920;2023-05-20T08:25:02;4.07;;;3.60;;
60494;SDS011;46342;49.046;11.920;2023-05-20T08:27:28;4.00;;;3.55;;
60494;SDS011;46342;49.046;11.920;2023-05-20T08:29:54;3.50;;;3.20;;
60494;SDS011;46342;49.046;11.920;2023-05-20T08:32:20;4.15;;;3.50;;
60494;SDS011;46342;49.046;11.920;2023-05-20T08:34:45;4.75;;;3.60;;
60494;SDS011;46342;49.046;11.920;2023-05-20T08:37:13;3.60;;;3.30;;
60494;SDS011;46342;49.046;11.920;2023-05-20T08:39:38;4.55;;;3.92;;
60494;SDS011;46342;49.046;11.920;2023-05-20T08:42:04;5.32;;;3.85;;
60494;SDS011;46342;49.046;11.920;2023-05-20T08:44:31;4.05;;;3.60;;
60494;SDS011;46342;49.046;11.920;2023-05-20T08:46:58;3.75;;;3.38;;
60494;SDS011;46342;49.046;11.920;2023-05-20T08:49:25;3.88;;;3.47;;
60494;SDS011;46342;49.046;11.920;2023-05-20T08:51:50;4.72;;;3.80;;
60494;SDS011;46342;49.046;11.920;2023-05-20T08:54:16;3.67;;;3.30;;
60494;SDS011;46342;49.046;11.920;2023-05-20T08:56:44;6.55;;;3.15;;
60494;SDS011;46342;49.046;11.920;2023-05-20T08:59:10;5.15;;;3.08;;
60494;SDS011;46342;49.046;11.920;2023-05-20T09:01:38;4.00;;;3.33;;
60494;SDS011;46342;49.046;11.920;2023-05-20T09:04:07;4.50;;;3.58;;
60494;SDS011;46342;49.046;11.920;2023-05-20T09:06:46;5.35;;;3.75;;
60494;SDS011;46342;49.046;11.920;2023-05-20T09:09:11;5.05;;;3.70;;
60494;SDS011;46342;49.046;11.920;2023-05-20T09:11:39;4.30;;;3.90;;
60494;SDS011;46342;49.046;11.920;2023-05-20T09:14:05;5.95;;;3.08;;
60494;SDS011;46342;49.046;11.920;2023-05-20T09:16:31;4.18;;;3.75;;
60494;SDS011;46342;49.046;11.920;2023-05-20T09:18:57;6.68;;;3.78;;
60494;SDS011;46342;49.046;11.920;2023-05-20T09:21:29;4.40;;;3.60;;
60494;SDS011;46342;49.046;11.920;2023-05-20T09:23:55;3.38;;;3.00;;
60494;SDS011;46342;49.046;11.920;2023-05-20T09:26:23;5.55;;;3.83;;
60494;SDS011;46342;49.046;11.920;2023-05-20T09:28:51;4.57;;;3.28;;
60494;SDS011;46342;49.046;11.920;2023-05-20T09:31:17;3.95;;;3.45;;
60494;SDS011;46342;49.046;11.920;2023-05-20T09:33:43;5.88;;;3.67;;
60494;SDS011;46342;49.046;11.920;2023-05-20T09:36:09;4.30;;;3.50;;
60494;SDS011;46342;49.046;11.920;2023-05-20T09:38:36;4.53;;;4.00;;
60494;SDS011;46342;49.046;11.920;2023-05-20T09:41:07;4.55;;;3.88;;
60494;SDS011;46342;49.046;11.920;2023-05-20T09:43:35;5.10;;;3.78;;
60494;SDS011;46342;49.046;11.920;2023-05-20T09:46:02;4.30;;;3.83;;
60494;SDS011;46342;49.046;11.920;2023-05-20T09:48:28;7.07;;;3.72;;
60494;SDS011;46342;49.046;11.920;2023-05-20T09:50:55;3.72;;;3.42;;
60494;SDS011;46342;49.046;11.920;2023-05-20T09:53:22;3.90;;;3.50;;
60494;SDS011;46342;49.046;11.920;2023-05-20T09:55:52;4.85;;;3.97;;
60494;SDS011;46342;49.046;11.920;2023-05-20T09:58:18;3.85;;;3.47;;
60494;SDS011;46342;49.046;11.920;2023-05-20T10:00:44;4.55;;;4.15;;
60494;SDS011;46342;49.046;11.920;2023-05-20T10:03:10;5.93;;;4.40;;
60494;SDS011;46342;49.046;11.920;2023-05-20T10:05:40;5.35;;;3.60;;
60494;SDS011;46342;49.046;11.920;2023-05-20T10:08:34;6.53;;;3.47;;
60494;SDS011;46342;49.046;11.920;2023-05-20T10:11:55;4.75;;;3.97;;
60494;SDS011;46342;49.046;11.920;2023-05-20T10:17:20;8.52;;;3.70;;
60494;SDS011;46342;49.046;11.920;2023-05-20T10:19:58;4.43;;;3.95;;
60494;SDS011;46342;49.046;11.920;2023-05-20T10:22:28;3.83;;;3.47;;
60494;SDS011;46342;49.046;11.920;2023-05-20T10:24:58;5.28;;;4.07;;
60494;SDS011;46342;49.046;11.920;2023-05-20T10:27:25;6.75;;;4.10;;
60494;SDS011;46342;49.046;11.920;2023-05-20T10:29:51;8.10;;;4.43;;
60494;SDS011;46342;49.046;11.920;2023-05-20T10:32:36;4.22;;;3.83;;
60494;SDS011;46342;49.046;11.920;2023-05-20T10:35:13;5.43;;;3.80;;
60494;SDS011;46342;49.046;11.920;2023-05-20T10:37:46;4.90;;;4.15;;
60494;SDS011;46342;49.046;11.920;2023-05-20T10:40:13;14.38;;;3.95;;
60494;SDS011;46342;49.046;11.920;2023-05-20T10:42:39;5.60;;;3.90;;
60494;SDS011;46342;49.046;11.920;2023-05-20T10:45:06;6.47;;;3.88;;
60494;SDS011;46342;49.046;11.920;2023-05-20T10:47:32;5.38;;;3.75;;
60494;SDS011;46342;49.046;11.920;2023-05-20T10:49:58;4.03;;;3.40;;
60494;SDS011;46342;49.046;11.920;2023-05-20T10:52:26;4.57;;;4.10;;
60494;SDS011;46342;49.046;11.920;2023-05-20T10:54:55;3.53;;;3.20;;
60494;SDS011;46342;49.046;11.920;2023-05-20T10:57:21;3.85;;;3.22;;
60494;SDS011;46342;49.046;11.920;2023-05-20T10:59:48;5.20;;;3.63;;
60494;SDS011;46342;49.046;11.920;2023-05-20T11:02:15;6.28;;;3.40;;
60494;SDS011;46342;49.046;11.920;2023-05-20T11:04:42;3.83;;;3.53;;
60494;SDS011;46342;49.046;11.920;2023-05-20T11:07:08;3.60;;;3.13;;
60494;SDS011;46342;49.046;11.920;2023-05-20T11:09:34;3.67;;;3.15;;
60494;SDS011;46342;49.046;11.920;2023-05-20T11:11:59;3.13;;;2.83;;
60494;SDS011;46342;49.046;11.920;2023-05-20T11:14:26;4.53;;;3.42;;
60494;SDS011;46342;49.046;11.920;2023-05-20T11:16:54;3.60;;;3.30;;
60494;SDS011;46342;49.046;11.920;2023-05-20T11:19:26;3.85;;;3.45;;
60494;SDS011;46342;49.046;11.920;2023-05-20T11:21:52;4.28;;;3.60;;
60494;SDS011;46342;49.046;11.920;2023-05-20T11:24:26;4.40;;;4.00;;
60494;SDS011;46342;49.046;11.920;2023-05-20T11:26:53;4.03;;;3.42;;
60494;SDS011;46342;49.046;11.920;2023-05-20T11:29:19;7.97;;;3.65;;
60494;SDS011;46342;49.046;11.920;2023-05-20T11:31:46;4.35;;;3.55;;
60494;SDS011;46342;49.046;11.920;2023-05-20T11:34:16;4.53;;;3.28;;
60494;SDS011;46342;49.046;11.920;2023-05-20T11:36:44;5.82;;;3.28;;
60494;SDS011;46342;49.046;11.920;2023-05-20T11:39:10;3.85;;;3.47;;
60494;SDS011;46342;49.046;11.920;2023-05-20T11:41:37;3.78;;;2.92;;
60494;SDS011;46342;49.046;11.920;2023-05-20T11:44:03;3.83;;;3.28;;
60494;SDS011;46342;49.046;11.920;2023-05-20T11:46:29;4.10;;;2.97;;
60494;SDS011;46342;49.046;11.920;2023-05-20T11:48:55;3.88;;;3.20;;
60494;SDS011;46342;49.046;11.920;2023-05-20T11:51:30;3.58;;;3.25;;
60494;SDS011;46342;49.046;11.920;2023-05-20T11:54:00;3.05;;;2.75;;
60494;SDS011;46342;49.046;11.920;2023-05-20T11:56:30;5.10;;;2.53;;
60494;SDS011;46342;49.046;11.920;2023-05-20T11:58:58;5.45;;;2.83;;
60494;SDS011;46342;49.046;11.920;2023-05-20T12:01:34;5.38;;;2.95;;
60494;SDS011;46342;49.046;11.920;2023-05-20T12:04:02;3.35;;;3.05;;
60494;SDS011;46342;49.046;11.920;2023-05-20T12:06:31;5.55;;;3.00;;
60494;SDS011;46342;49.046;11.920;2023-05-20T12:08:59;3.72;;;2.90;;
60494;SDS011;46342;49.046;11.920;2023-05-20T12:11:30;3.20;;;2.67;;
60494;SDS011;46342;49.046;11.920;2023-05-20T12:13:57;6.03;;;3.25;;
60494;SDS011;46342;49.046;11.920;2023-05-20T12:16:22;4.57;;;2.70;;
60494;SDS011;46342;49.046;11.920;2023-05-20T12:18:48;3.22;;;2.92;;
60494;SDS011;46342;49.046;11.920;2023-05-20T12:21:13;3.65;;;2.80;;
60494;SDS011;46342;49.046;11.920;2023-05-20T12:23:39;4.10;;;2.90;;
60494;SDS011;46342;49.046;11.920;2023-05-20T12:26:04;5.13;;;3.13;;
60494;SDS011;46342;49.046;11.920;2023-05-20T12:28:30;4.03;;;3.00;;
60494;SDS011;46342;49.046;11.920;2023-05-20T12:30:56;3.95;;;3.13;;
60494;SDS011;46342;49.046;11.920;2023-05-20T12:33:21;6.35;;;3.20;;
60494;SDS011;46342;49.046;11.920;2023-05-20T12:35:47;4.60;;;3.40;;
60494;SDS011;46342;49.046;11.920;2023-05-20T12:38:12;3.38;;;2.95;;
60494;SDS011;46342;49.046;11.920;2023-05-20T12:40:38;3.65;;;3.35;;
60494;SDS011;46342;49.046;11.920;2023-05-20T12:43:03;3.20;;;2.90;;
60494;SDS011;46342;49.046;11.920;2023-05-20T12:45:29;3.58;;;3.22;;
60494;SDS011;46342;49.046;11.920;2023-05-20T12:47:56;5.88;;;3.25;;
60494;SDS011;46342;49.046;11.920;2023-05-20T12:50:22;3.42;;;2.72;;
60494;SDS011;46342;49.046;11.920;2023-05-20T12:52:48;2.90;;;2.70;;
60494;SDS011;46342;49.046;11.920;2023-05-20T12:55:14;4.13;;;3.00;;
60494;SDS011;46342;49.046;11.920;2023-05-20T12:57:39;5.25;;;3.30;;
60494;SDS011;46342;49.046;11.920;2023-05-20T13:00:06;3.75;;;3.13;;
60494;SDS011;46342;49.046;11.920;2023-05-20T13:02:32;2.97;;;2.78;;
60494;SDS011;46342;49.046;11.920;2023-05-20T13:04:58;3.58;;;3.28;;
60494;SDS011;46342;49.046;11.920;2023-05-20T13:07:24;3.90;;;2.90;;
60494;SDS011;46342;49.046;11.920;2023-05-20T13:09:50;3.93;;;3.37;;
60494;SDS011;46342;49.046;11.920;2023-05-20T13:12:16;4.85;;;3.22;;
60494;SDS011;46342;49.046;11.920;2023-05-20T13:14:42;3.25;;;2.95;;
60494;SDS011;46342;49.046;11.920;2023-05-20T13:17:08;5.32;;;3.00;;
60494;SDS011;46342;49.046;11.920;2023-05-20T13:19:33;2.75;;;2.45;;
60494;SDS011;46342;49.046;11.920;2023-05-20T13:21:59;3.70;;;3.30;;
60494;SDS011;46342;49.046;11.920;2023-05-20T13:24:25;3.70;;;3.15;;
60494;SDS011;46342;49.046;11.920;2023-05-20T13:26:51;5.28;;;3.28;;
60494;SDS011;46342;49.046;11.920;2023-05-20T13:29:16;3.83;;;3.42;;
60494;SDS011;46342;49.046;11.920;2023-05-20T13:31:42;3.17;;;2.88;;
60494;SDS011;46342;49.046;11.920;2023-05-20T13:34:07;3.78;;;3.20;;
60494;SDS011;46342;49.046;11.920;2023-05-20T13:36:33;3.55;;;3.17;;
60494;SDS011;46342;49.046;11.920;2023-05-20T13:38:59;5.50;;;3.33;;
60494;SDS011;46342;49.046;11.920;2023-05-20T13:41:24;4.28;;;2.60;;
60494;SDS011;46342;49.046;11.920;2023-05-20T13:43:54;3.53;;;3.00;;
60494;SDS011;46342;49.046;11.920;2023-05-20T13:46:20;3.17;;;2.88;;
60494;SDS011;46342;49.046;11.920;2023-05-20T13:48:46;3.88;;;3.15;;
60494;SDS011;46342;49.046;11.920;2023-05-20T13:51:11;3.55;;;3.10;;
60494;SDS011;46342;49.046;11.920;2023-05-20T13:53:37;4.25;;;3.63;;
60494;SDS011;46342;49.046;11.920;2023-05-20T13:56:03;3.65;;;3.35;;
60494;SDS011;46342;49.046;11.920;2023-05-20T13:58:29;4.32;;;3.55;;
60494;SDS011;46342;49.046;11.920;2023-05-20T14:00:54;5.05;;;3.40;;
60494;SDS011;46342;49.046;11.920;2023-05-20T14:03:20;2.70;;;2.45;;
60494;SDS011;46342;49.046;11.920;2023-05-20T14:05:46;3.58;;;3.10;;
60494;SDS011;46342;49.046;11.920;2023-05-20T14:08:12;3.35;;;3.05;;
60494;SDS011;46342;49.046;11.920;2023-05-20T14:10:38;3.70;;;3.40;;
60494;SDS011;46342;49.046;11.920;2023-05-20T14:13:03;3.60;;;3.05;;
60494;SDS011;46342;49.046;11.920;2023-05-20T14:15:29;23.92;;;7.65;;
60494;SDS011;46342;49.046;11.920;2023-05-20T14:17:57;4.00;;;3.58;;
60494;SDS011;46342;49.046;11.920;2023-05-20T14:20:23;5.07;;;3.40;;
60494;SDS011;46342;49.046;11.920;2023-05-20T14:22:50;3.72;;;3.42;;
60494;SDS011;46342;49.046;11.920;2023-05-20T14:25:16;7.45;;;3.80;;
60494;SDS011;46342;49.046;11.920;2023-05-20T14:27:42;5.20;;;3.65;;
60494;SDS011;46342;49.046;11.920;2023-05-20T14:30:08;4.85;;;3.60;;
60494;SDS011;46342;49.046;11.920;2023-05-20T14:32:34;4.07;;;3.47;;
60494;SDS011;46342;49.046;11.920;2023-05-20T14:35:00;4.35;;;3.22;;
60494;SDS011;46342;49.046;11.920;2023-05-20T14:37:25;3.97;;;3.17;;